Time;durP1;ratioP1;P1;durP2;ratioP2;P2;SDS_P1;SDS_P2;PMS_P1;PMS_P2;Temp;Humidity;BMP_temperature;BMP_pressure;BME280_temperature;BME280_humidity;BME280_pressure;Samples;Min_cycle;Max_cycle;Signal;HPM_P1;HPM_P2
2023/03/19 00:00:24;;;;;;;11.97;6.90;;;;;;;9.25;85.81;100181.84;5021567;28;20212;-69
2023/03/19 00:02:51;;;;;;;15.80;8.40;;;;;;;9.29;86.01;100178.38;5021038;28;20197;-69
2023/03/19 00:05:17;;;;;;;17.63;7.83;;;;;;;9.29;86.55;100188.06;5023015;28;20553;-69
2023/03/19 00:07:44;;;;;;;17.47;7.30;;;;;;;9.29;86.47;100188.94;5018942;28;20192;-73
2023/03/19 00:10:10;;;;;;;9.73;7.23;;;;;;;9.29;86.45;100191.59;5023688;28;20214;-72
2023/03/19 00:12:37;;;;;;;12.53;7.37;;;;;;;9.31;86.38;100194.25;5020503;28;20745;-69
2023/03/19 00:15:04;;;;;;;11.70;7.13;;;;;;;9.34;86.37;100194.28;5020418;28;20255;-74
2023/03/19 00:17:31;;;;;;;10.60;6.37;;;;;;;9.38;86.10;100193.47;5021768;28;20224;-69
2023/03/19 00:19:57;;;;;;;12.63;7.20;;;;;;;9.40;86.30;100186.44;5021911;28;20618;-72
2023/03/19 00:22:24;;;;;;;10.53;6.57;;;;;;;9.40;85.67;100195.28;5020565;28;20205;-70
2023/03/19 00:24:51;;;;;;;10.10;6.30;;;;;;;9.40;85.67;100191.72;5021182;28;20651;-69
2023/03/19 00:27:17;;;;;;;9.77;6.30;;;;;;;9.46;85.75;100190.94;5020055;28;20196;-70
2023/03/19 00:29:43;;;;;;;8.37;5.97;;;;;;;9.40;85.55;100189.97;5020346;28;20200;-72
2023/03/19 00:32:10;;;;;;;10.10;6.37;;;;;;;9.46;85.98;100191.81;5020785;28;20736;-69
2023/03/19 00:34:36;;;;;;;10.63;5.97;;;;;;;9.51;85.84;100189.25;5020897;28;20284;-70
2023/03/19 00:37:02;;;;;;;13.80;6.00;;;;;;;9.56;85.60;100195.47;5028779;28;20310;-71
2023/03/19 00:39:29;;;;;;;10.00;5.77;;;;;;;9.55;85.75;100193.69;5025516;28;20581;-70
2023/03/19 00:41:55;;;;;;;11.30;6.00;;;;;;;9.45;85.93;100197.09;5029800;28;20253;-70
2023/03/19 00:44:22;;;;;;;13.13;6.13;;;;;;;9.35;86.57;100198.72;5030210;28;20821;-69
2023/03/19 00:46:48;;;;;;;10.63;6.00;;;;;;;9.30;86.88;100201.28;5027583;28;20236;-74
2023/03/19 00:49:14;;;;;;;10.70;6.10;;;;;;;9.34;86.67;100204.88;5027249;28;20200;-69
2023/03/19 00:51:42;;;;;;;10.60;5.87;;;;;;;9.44;86.18;100204.13;5029599;28;20293;-71
2023/03/19 00:54:11;;;;;;;7.87;5.40;;;;;;;9.47;85.93;100195.34;5018290;28;20209;-71
2023/03/19 00:56:37;;;;;;;9.77;5.60;;;;;;;9.49;85.79;100196.25;5022495;28;20207;-70
2023/03/19 00:59:04;;;;;;;9.13;5.70;;;;;;;9.42;86.04;100192.66;5026142;28;20206;-69
2023/03/19 01:01:30;;;;;;;9.07;5.60;;;;;;;9.35;86.27;100204.00;5029216;28;20216;-69
2023/03/19 01:03:57;;;;;;;10.47;5.90;;;;;;;9.27;86.30;100195.97;5019665;28;20585;-69
2023/03/19 01:06:24;;;;;;;7.50;5.00;;;;;;;9.19;87.07;100189.63;5029989;28;20942;-70
2023/03/19 01:08:50;;;;;;;10.10;5.50;;;;;;;9.14;87.28;100188.69;5014820;28;20199;-69
2023/03/19 01:11:17;;;;;;;8.90;5.17;;;;;;;9.15;87.36;100190.47;5015069;28;20218;-69
2023/03/19 01:13:44;;;;;;;8.13;5.27;;;;;;;9.14;87.71;100185.16;5011937;28;20621;-70
2023/03/19 01:16:11;;;;;;;10.10;5.40;;;;;;;9.07;87.71;100184.16;5012378;28;20207;-71
2023/03/19 01:18:39;;;;;;;8.10;5.43;;;;;;;9.02;88.25;100189.38;5011782;28;20238;-70
2023/03/19 01:21:07;;;;;;;9.17;5.47;;;;;;;8.99;88.88;100183.16;5012356;28;20610;-72
2023/03/19 01:23:33;;;;;;;8.43;5.43;;;;;;;8.95;89.00;100181.34;5011414;28;20244;-70
2023/03/19 01:25:59;;;;;;;10.47;5.67;;;;;;;9.06;88.55;100188.56;5011275;28;20196;-69
2023/03/19 01:28:26;;;;;;;10.00;5.80;;;;;;;9.20;88.01;100190.53;5013289;28;20248;-70
2023/03/19 01:30:52;;;;;;;7.53;5.00;;;;;;;9.20;87.50;100185.25;5011654;28;20224;-72
2023/03/19 01:33:19;;;;;;;8.73;5.37;;;;;;;9.12;88.00;100182.50;5015636;28;20218;-70
2023/03/19 01:35:49;;;;;;;17.03;5.60;;;;;;;9.07;88.45;100185.06;5020083;28;20199;-70
2023/03/19 01:38:16;;;;;;;10.13;5.40;;;;;;;9.00;88.62;100174.38;5028338;28;20216;-72
2023/03/19 01:40:45;;;;;;;10.40;6.00;;;;;;;8.98;89.13;100182.28;5029043;28;20223;-70
2023/03/19 01:43:22;;;;;;;10.37;5.43;;;;;;;8.93;89.41;100181.31;5025836;28;20246;-70
2023/03/19 01:45:50;;;;;;;12.50;5.33;;;;;;;8.91;89.76;100175.13;5027856;28;20199;-70
2023/03/19 01:48:22;;;;;;;9.37;4.90;;;;;;;8.92;90.22;100176.00;5028151;28;20198;-71
2023/03/19 01:50:52;;;;;;;8.50;5.80;;;;;;;8.95;89.64;100178.69;5021767;28;20217;-70
2023/03/19 01:53:22;;;;;;;9.30;5.47;;;;;;;8.96;89.69;100189.28;5026368;28;20207;-70
2023/03/19 01:55:49;;;;;;;8.07;5.13;;;;;;;8.96;89.81;100188.41;5028573;28;20197;-72
2023/03/19 01:58:16;;;;;;;9.87;5.47;;;;;;;8.96;90.04;100193.69;5028322;28;20223;-70
2023/03/19 02:00:44;;;;;;;10.90;4.73;;;;;;;8.98;89.70;100198.13;5028092;28;20236;-73
2023/03/19 02:03:12;;;;;;;8.30;5.57;;;;;;;8.99;89.90;100196.38;5026889;28;20299;-69
2023/03/19 02:05:40;;;;;;;10.07;5.90;;;;;;;9.05;89.87;100193.81;5029579;28;20659;-69
2023/03/19 02:08:11;;;;;;;7.90;5.17;;;;;;;9.06;89.53;100192.97;5020693;28;20200;-69
2023/03/19 02:10:39;;;;;;;9.23;5.27;;;;;;;9.06;89.67;100200.88;5012643;28;20318;-73
2023/03/19 02:13:05;;;;;;;10.90;5.50;;;;;;;9.09;89.31;100201.81;5011151;28;20682;-75
2023/03/19 02:15:32;;;;;;;7.23;5.30;;;;;;;9.12;89.34;100203.63;5013758;28;20983;-70
2023/03/19 02:17:58;;;;;;;8.40;5.63;;;;;;;9.08;89.24;100207.06;5011356;28;20223;-74
2023/03/19 02:20:33;;;;;;;9.37;5.53;;;;;;;9.06;89.25;100208.81;5017371;28;20300;-70
2023/03/19 02:23:09;;;;;;;10.23;6.00;;;;;;;9.04;89.56;100207.91;5012279;28;20203;-71
2023/03/19 02:25:44;;;;;;;11.97;5.30;;;;;;;9.01;89.40;100199.94;5013168;28;20204;-69
2023/03/19 02:28:15;;;;;;;8.67;5.10;;;;;;;9.09;89.24;100203.56;5012946;28;20192;-72
2023/03/19 02:30:43;;;;;;;10.40;5.90;;;;;;;9.00;89.63;100193.75;5011260;28;20251;-69
2023/03/19 02:33:16;;;;;;;8.93;5.63;;;;;;;9.03;89.77;100185.00;5016678;28;20741;-69
2023/03/19 02:35:45;;;;;;;8.97;5.10;;;;;;;8.99;90.18;100196.38;5013643;28;20713;-70
2023/03/19 02:38:12;;;;;;;7.20;5.10;;;;;;;8.90;90.29;100199.75;5024156;28;20252;-70
2023/03/19 02:40:52;;;;;;;8.63;5.30;;;;;;;8.83;90.64;100187.31;5028719;28;20248;-71
2023/03/19 02:43:20;;;;;;;9.03;5.40;;;;;;;8.81;90.71;100198.72;5028491;28;20224;-72
2023/03/19 02:45:47;;;;;;;8.87;5.30;;;;;;;8.82;91.35;100192.56;5019097;28;20197;-70
2023/03/19 02:48:13;;;;;;;9.87;5.70;;;;;;;9.10;89.71;100193.03;5026118;28;20199;-71
2023/03/19 02:50:40;;;;;;;10.03;5.60;;;;;;;9.18;89.37;100193.16;5023692;28;20216;-70
2023/03/19 02:53:07;;;;;;;10.53;5.77;;;;;;;9.21;88.51;100194.97;5020992;28;20702;-69
2023/03/19 02:55:33;;;;;;;12.03;5.50;;;;;;;9.26;88.58;100196.81;5014052;28;20204;-71
2023/03/19 02:57:59;;;;;;;10.73;5.83;;;;;;;9.08;88.67;100200.03;5026797;28;20220;-70
2023/03/19 03:00:27;;;;;;;10.97;5.50;;;;;;;8.97;89.34;100196.34;5032045;28;20234;-71
2023/03/19 03:02:56;;;;;;;6.97;5.07;;;;;;;8.86;90.06;100199.69;5025251;28;20682;-72
2023/03/19 03:05:22;;;;;;;9.30;5.60;;;;;;;8.84;90.92;100199.66;5024588;28;20216;-69
2023/03/19 03:07:49;;;;;;;10.43;5.50;;;;;;;8.84;91.26;100197.00;5025729;28;20196;-72
2023/03/19 03:10:15;;;;;;;9.03;5.30;;;;;;;8.77;91.21;100203.03;5016416;28;20207;-70
2023/03/19 03:12:42;;;;;;;10.77;6.00;;;;;;;8.76;91.79;100202.13;5015064;28;20228;-70
2023/03/19 03:15:09;;;;;;;7.70;5.30;;;;;;;8.77;92.11;100203.91;5018179;28;20200;-70
2023/03/19 03:17:36;;;;;;;7.50;5.10;;;;;;;8.71;92.02;100201.16;5020199;28;20216;-72
2023/03/19 03:20:04;;;;;;;11.40;5.53;;;;;;;8.72;92.21;100200.31;5020299;28;20201;-69
2023/03/19 03:22:31;;;;;;;8.27;5.23;;;;;;;8.90;91.58;100204.16;5017655;28;20203;-71
2023/03/19 03:24:58;;;;;;;7.27;4.70;;;;;;;8.94;91.05;100196.28;5015977;28;20282;-71
2023/03/19 03:27:24;;;;;;;10.37;5.20;;;;;;;8.97;90.86;100193.69;5016033;28;20230;-72
2023/03/19 03:29:51;;;;;;;9.87;5.17;;;;;;;8.89;91.18;100197.97;5013894;28;20660;-69
2023/03/19 03:32:17;;;;;;;7.20;4.77;;;;;;;8.90;91.64;100194.47;5016930;28;20620;-69
2023/03/19 03:34:45;;;;;;;8.77;5.67;;;;;;;8.84;91.45;100206.69;5015012;28;20235;-69
2023/03/19 03:37:11;;;;;;;9.70;5.90;;;;;;;8.79;91.62;100203.94;5015081;28;20203;-71
2023/03/19 03:39:38;;;;;;;10.67;5.27;;;;;;;8.63;91.74;100197.50;5014730;28;20201;-69
2023/03/19 03:42:05;;;;;;;8.57;5.00;;;;;;;8.43;92.31;100209.47;5015479;28;20220;-73
2023/03/19 03:44:31;;;;;;;7.93;4.93;;;;;;;8.18;93.51;100208.94;5014681;28;20263;-69
2023/03/19 03:46:58;;;;;;;11.23;5.43;;;;;;;8.00;94.62;100212.94;5015414;28;20335;-70
2023/03/19 03:49:24;;;;;;;8.93;5.53;;;;;;;7.85;95.79;100219.66;5014039;28;20224;-69
2023/03/19 03:51:51;;;;;;;9.53;5.13;;;;;;;7.74;96.40;100218.56;5014333;28;20232;-71
2023/03/19 03:54:17;;;;;;;8.33;5.50;;;;;;;7.57;96.95;100209.38;5015316;28;20203;-70
2023/03/19 03:56:44;;;;;;;9.03;5.20;;;;;;;7.50;97.86;100208.34;5013124;28;20669;-74
2023/03/19 03:59:11;;;;;;;7.33;5.00;;;;;;;7.45;98.78;100209.09;5016071;28;20227;-70
2023/03/19 04:01:37;;;;;;;9.90;5.83;;;;;;;7.43;100.00;100210.81;5024240;28;20273;-70
2023/03/19 04:04:04;;;;;;;6.83;4.77;;;;;;;7.45;100.00;100215.25;5014218;28;20419;-73
2023/03/19 04:06:30;;;;;;;8.97;5.00;;;;;;;7.41;100.00;100218.69;5015743;28;20285;-70
2023/03/19 04:08:56;;;;;;;10.67;5.20;;;;;;;7.35;100.00;100215.03;5012808;28;20227;-71
2023/03/19 04:11:23;;;;;;;7.83;5.07;;;;;;;7.34;100.00;100224.66;5016567;28;20269;-70
2023/03/19 04:13:49;;;;;;;8.33;5.13;;;;;;;7.30;100.00;100225.44;5015228;28;20232;-72
2023/03/19 04:16:16;;;;;;;7.60;5.30;;;;;;;7.26;100.00;100228.88;5021450;28;21622;-70
2023/03/19 04:18:42;;;;;;;10.30;5.53;;;;;;;7.22;100.00;100242.81;5018645;28;20235;-70
2023/03/19 04:21:09;;;;;;;10.23;6.40;;;;;;;7.15;100.00;100236.47;5013309;28;20216;-71
2023/03/19 04:23:35;;;;;;;8.50;5.50;;;;;;;7.06;100.00;100235.38;5013431;28;20196;-71
2023/03/19 04:26:04;;;;;;;9.00;5.33;;;;;;;7.00;100.00;100241.38;5014318;28;20213;-70
2023/03/19 04:28:30;;;;;;;10.17;5.47;;;;;;;6.98;100.00;100244.84;5015810;28;20249;-70
2023/03/19 04:31:04;;;;;;;10.47;5.50;;;;;;;6.94;100.00;100246.50;5012900;28;20693;-70
2023/03/19 04:33:31;;;;;;;8.93;5.57;;;;;;;6.86;100.00;100250.69;5018736;28;20203;-72
2023/03/19 04:35:58;;;;;;;9.43;5.77;;;;;;;6.77;100.00;100253.03;5012147;28;20656;-70
2023/03/19 04:38:28;;;;;;;8.93;5.73;;;;;;;6.64;100.00;100245.69;5020041;28;20227;-70
2023/03/19 04:40:55;;;;;;;12.13;5.80;;;;;;;6.62;100.00;100250.91;5029672;28;20215;-70
2023/03/19 04:43:22;;;;;;;10.03;5.10;;;;;;;6.55;100.00;100260.38;5030276;28;20199;-70
2023/03/19 04:45:49;;;;;;;6.70;5.00;;;;;;;6.51;100.00;100260.25;5023344;28;20199;-71
2023/03/19 04:48:17;;;;;;;10.77;5.47;;;;;;;6.47;100.00;100261.03;5023408;28;20219;-69
2023/03/19 04:50:44;;;;;;;11.07;5.97;;;;;;;6.47;100.00;100255.78;5030620;28;20249;-70
2023/03/19 04:53:11;;;;;;;11.03;6.37;;;;;;;6.43;100.00;100252.16;5030120;28;20667;-73
2023/03/19 04:55:38;;;;;;;9.77;6.10;;;;;;;6.46;100.00;100248.72;5026896;28;20278;-70
2023/03/19 04:58:04;;;;;;;8.10;5.67;;;;;;;6.47;100.00;100247.88;5027390;28;20217;-70
2023/03/19 05:00:31;;;;;;;8.50;5.83;;;;;;;6.74;100.00;100248.59;5015220;28;20256;-72
2023/03/19 05:02:58;;;;;;;8.70;5.67;;;;;;;6.85;100.00;100251.53;5022777;28;20233;-70
2023/03/19 05:05:24;;;;;;;13.57;5.83;;;;;;;6.87;100.00;100261.25;5022451;28;20222;-69
2023/03/19 05:07:50;;;;;;;7.17;5.37;;;;;;;6.86;100.00;100270.00;5030252;28;20225;-69
2023/03/19 05:10:17;;;;;;;9.23;6.00;;;;;;;6.69;100.00;100266.00;5016295;28;20263;-69
2023/03/19 05:12:43;;;;;;;8.33;5.20;;;;;;;6.55;100.00;100272.66;5012083;28;20262;-75
2023/03/19 05:15:10;;;;;;;10.33;5.37;;;;;;;6.45;100.00;100273.25;5012003;28;20206;-70
2023/03/19 05:17:36;;;;;;;9.10;5.80;;;;;;;6.39;100.00;100271.31;5018571;28;20245;-70
2023/03/19 05:20:03;;;;;;;6.93;5.13;;;;;;;6.42;100.00;100271.44;5017872;28;20208;-73
2023/03/19 05:22:30;;;;;;;12.47;6.03;;;;;;;6.42;100.00;100275.81;5012905;28;20202;-70
2023/03/19 05:24:57;;;;;;;12.37;6.40;;;;;;;6.53;100.00;100269.97;5012884;28;20263;-70
2023/03/19 05:27:23;;;;;;;11.17;6.13;;;;;;;6.55;100.00;100270.91;5013007;28;20207;-70
2023/03/19 05:29:49;;;;;;;13.03;6.03;;;;;;;6.52;100.00;100278.72;5014405;28;20239;-71
2023/03/19 05:32:16;;;;;;;10.37;5.30;;;;;;;6.51;100.00;100289.19;5015371;28;20233;-72
2023/03/19 05:34:42;;;;;;;10.87;5.83;;;;;;;6.56;100.00;100291.09;5011302;28;20210;-70
2023/03/19 05:37:08;;;;;;;10.23;6.60;;;;;;;6.66;100.00;100286.09;5012280;28;20621;-71
2023/03/19 05:39:35;;;;;;;10.13;6.47;;;;;;;6.85;100.00;100286.66;5012535;28;20784;-70
2023/03/19 05:42:01;;;;;;;10.37;6.27;;;;;;;6.97;100.00;100293.97;5014348;28;20316;-71
2023/03/19 05:44:28;;;;;;;8.83;6.03;;;;;;;7.06;100.00;100299.47;5012767;28;20211;-69
2023/03/19 05:46:54;;;;;;;8.83;5.70;;;;;;;7.24;100.00;100293.78;5021375;28;20230;-71
2023/03/19 05:49:21;;;;;;;9.83;6.07;;;;;;;7.25;100.00;100305.22;5015373;28;20204;-70
2023/03/19 05:51:47;;;;;;;12.13;6.13;;;;;;;7.21;100.00;100313.03;5012506;28;20235;-70
2023/03/19 05:54:14;;;;;;;7.73;5.83;;;;;;;7.17;100.00;100305.88;5013432;28;20210;-70
2023/03/19 05:56:40;;;;;;;8.13;5.77;;;;;;;7.16;100.00;100301.47;5014403;28;20196;-72
2023/03/19 05:59:07;;;;;;;10.50;5.80;;;;;;;7.18;100.00;100306.78;5013482;28;20223;-71
2023/03/19 06:01:33;;;;;;;9.13;5.70;;;;;;;7.37;100.00;100316.06;5020296;28;20218;-70
2023/03/19 06:04:00;;;;;;;11.77;6.20;;;;;;;7.63;100.00;100309.69;5013002;28;20298;-69
2023/03/19 06:06:26;;;;;;;11.07;5.53;;;;;;;7.68;99.83;100309.78;5015667;28;20253;-69
2023/03/19 06:08:52;;;;;;;9.27;5.37;;;;;;;7.62;99.68;100310.53;5015577;28;20293;-69
2023/03/19 06:11:19;;;;;;;9.23;5.30;;;;;;;7.62;100.00;100314.91;5014566;28;20246;-75
2023/03/19 06:13:46;;;;;;;10.77;5.53;;;;;;;7.63;100.00;100321.97;5012902;28;20340;-71
2023/03/19 06:16:12;;;;;;;6.97;5.10;;;;;;;7.67;100.00;100311.53;5011928;28;20266;-73
2023/03/19 06:18:39;;;;;;;7.60;5.50;;;;;;;7.74;100.00;100313.44;5014629;28;20670;-70
2023/03/19 06:21:05;;;;;;;9.73;5.50;;;;;;;7.77;100.00;100318.78;5012448;28;20315;-73
2023/03/19 06:23:32;;;;;;;9.27;5.50;;;;;;;7.81;100.00;100317.13;5011777;28;20286;-70
2023/03/19 06:25:58;;;;;;;10.70;5.57;;;;;;;7.86;100.00;100323.38;5012584;28;20200;-74
2023/03/19 06:28:25;;;;;;;17.23;5.87;;;;;;;7.94;99.73;100321.81;5027231;28;20283;-69
2023/03/19 06:30:53;;;;;;;7.80;5.40;;;;;;;8.00;99.50;100319.31;5025385;28;20216;-70
2023/03/19 06:33:20;;;;;;;8.57;5.43;;;;;;;8.10;99.30;100323.06;5032567;28;20211;-71
2023/03/19 06:35:47;;;;;;;13.50;6.07;;;;;;;8.19;99.08;100323.25;5029418;28;20199;-70
2023/03/19 06:38:14;;;;;;;8.30;5.57;;;;;;;8.30;98.30;100334.03;5030115;28;20699;-69
2023/03/19 06:40:40;;;;;;;8.87;5.93;;;;;;;8.43;96.78;100320.28;5030946;28;20217;-70
2023/03/19 06:43:06;;;;;;;9.33;5.80;;;;;;;8.64;95.73;100325.09;5032638;28;20191;-69
2023/03/19 06:45:33;;;;;;;9.80;6.20;;;;;;;8.77;94.60;100324.47;5024497;28;20204;-70
2023/03/19 06:47:59;;;;;;;7.97;5.80;;;;;;;8.95;93.01;100322.22;5031700;28;20227;-71
2023/03/19 06:50:26;;;;;;;10.27;5.97;;;;;;;9.14;92.08;100322.53;5031569;28;20242;-69
2023/03/19 06:52:52;;;;;;;10.27;5.57;;;;;;;9.42;90.81;100327.44;5036694;28;20211;-72
2023/03/19 06:55:19;;;;;;;11.37;5.90;;;;;;;9.67;89.61;100328.75;5028952;28;20211;-70
2023/03/19 06:57:48;;;;;;;10.10;5.87;;;;;;;9.80;88.22;100335.09;5031427;28;20193;-71
2023/03/19 07:00:15;;;;;;;8.53;5.70;;;;;;;9.62;88.18;100326.03;5023149;28;20278;-72
2023/03/19 07:02:42;;;;;;;8.10;5.37;;;;;;;9.41;88.86;100336.25;5022677;28;20256;-69
2023/03/19 07:05:09;;;;;;;9.10;5.60;;;;;;;9.39;89.87;100340.59;5023039;28;20215;-72
2023/03/19 07:07:36;;;;;;;8.80;5.40;;;;;;;9.28;90.23;100340.44;5027686;28;20235;-70
2023/03/19 07:10:02;;;;;;;7.30;5.30;;;;;;;9.16;90.88;100353.41;5032608;28;20396;-69
2023/03/19 07:12:29;;;;;;;7.83;5.20;;;;;;;9.30;91.02;100349.28;5019539;28;20204;-71
2023/03/19 07:14:55;;;;;;;9.13;5.40;;;;;;;9.39;90.36;100348.53;5032840;28;20195;-70
2023/03/19 07:17:23;;;;;;;8.57;5.50;;;;;;;9.36;89.89;100356.41;5029037;28;20200;-69
2023/03/19 07:19:50;;;;;;;9.83;6.13;;;;;;;9.42;89.90;100364.44;5027722;28;20739;-70
2023/03/19 07:22:17;;;;;;;12.70;5.20;;;;;;;9.49;89.15;100366.31;5027442;28;20223;-69
2023/03/19 07:24:43;;;;;;;10.47;5.40;;;;;;;9.60;89.27;100369.16;5032225;28;20207;-72
2023/03/19 07:27:10;;;;;;;10.67;5.10;;;;;;;9.84;87.87;100363.38;5030984;28;20685;-70
2023/03/19 07:29:37;;;;;;;8.27;5.43;;;;;;;9.98;87.15;100361.84;5025380;28;20229;-69
2023/03/19 07:32:03;;;;;;;7.47;4.57;;;;;;;10.15;86.81;100367.41;5029912;28;20213;-69
2023/03/19 07:34:30;;;;;;;10.73;5.07;;;;;;;10.38;84.86;100368.63;5031301;28;20202;-70
2023/03/19 07:36:57;;;;;;;10.47;4.90;;;;;;;10.50;83.46;100367.94;5022360;28;20232;-70
2023/03/19 07:39:23;;;;;;;9.07;4.97;;;;;;;10.52;83.31;100369.72;5030134;28;20258;-70
2023/03/19 07:41:50;;;;;;;9.97;5.30;;;;;;;10.51;83.40;100367.94;5030030;28;20253;-70
2023/03/19 07:44:16;;;;;;;7.00;4.57;;;;;;;10.57;83.53;100373.31;5024131;28;20366;-70
2023/03/19 07:46:42;;;;;;;7.70;4.90;;;;;;;10.68;82.48;100371.69;5025385;28;20663;-71
2023/03/19 07:49:09;;;;;;;7.83;4.57;;;;;;;10.71;82.51;100369.94;5030314;28;20678;-70
2023/03/19 07:51:35;;;;;;;7.87;4.50;;;;;;;10.87;82.59;100375.47;5023084;28;20270;-70
2023/03/19 07:54:02;;;;;;;8.53;5.23;;;;;;;10.97;81.75;100372.03;5030361;28;20257;-69
2023/03/19 07:56:28;;;;;;;8.60;5.33;;;;;;;11.08;81.22;100380.09;5020230;28;20199;-71
2023/03/19 07:58:55;;;;;;;7.47;4.83;;;;;;;11.29;80.40;100382.13;5030214;28;20276;-70
2023/03/19 08:01:21;;;;;;;6.50;4.73;;;;;;;11.40;79.45;100377.81;5026632;28;20230;-70
2023/03/19 08:03:47;;;;;;;5.77;4.13;;;;;;;11.49;77.89;100384.94;5032797;28;20714;-72
2023/03/19 08:06:14;;;;;;;9.23;5.53;;;;;;;11.56;79.23;100385.00;5028232;28;20203;-70
2023/03/19 08:08:40;;;;;;;6.13;4.47;;;;;;;11.63;79.45;100385.09;5030206;28;20195;-70
2023/03/19 08:11:07;;;;;;;7.03;4.90;;;;;;;11.69;78.34;100383.38;5028194;28;20255;-72
2023/03/19 08:13:34;;;;;;;8.10;4.73;;;;;;;11.76;76.60;100376.34;5027889;28;20196;-70
2023/03/19 08:16:00;;;;;;;8.60;4.47;;;;;;;11.86;76.56;100383.53;5026501;28;20201;-72
2023/03/19 08:18:26;;;;;;;8.23;4.70;;;;;;;12.01;76.25;100377.44;5026386;28;20233;-71
2023/03/19 08:20:53;;;;;;;8.37;4.57;;;;;;;12.22;75.46;100388.25;5026349;28;20709;-70
2023/03/19 08:23:19;;;;;;;7.80;4.33;;;;;;;12.46;73.54;100393.72;5023252;28;20232;-71
2023/03/19 08:25:45;;;;;;;7.13;4.33;;;;;;;12.64;72.79;100389.38;5028660;28;20203;-70
2023/03/19 08:28:12;;;;;;;6.27;4.23;;;;;;;12.75;71.26;100392.94;5028598;28;20254;-70
2023/03/19 08:30:38;;;;;;;8.53;4.70;;;;;;;12.93;71.22;100387.72;5029843;28;20709;-70
2023/03/19 08:33:05;;;;;;;7.77;4.47;;;;;;;13.14;70.78;100392.22;5027838;28;20516;-71
2023/03/19 08:35:31;;;;;;;7.67;4.33;;;;;;;13.39;69.71;100390.56;5030759;28;20199;-70
2023/03/19 08:37:58;;;;;;;6.47;4.67;;;;;;;13.38;68.84;100383.47;5026982;28;20198;-70
2023/03/19 08:40:25;;;;;;;6.87;4.40;;;;;;;13.67;67.97;100388.84;5029613;28;20231;-72
2023/03/19 08:42:53;;;;;;;6.43;4.10;;;;;;;14.05;67.25;100386.16;5027187;28;20235;-79
2023/03/19 08:45:20;;;;;;;5.37;3.50;;;;;;;14.31;65.47;100391.44;5015473;28;20234;-78
2023/03/19 08:47:47;;;;;;;7.13;3.93;;;;;;;14.61;63.85;100390.53;5018754;28;20199;-80
2023/03/19 08:50:14;;;;;;;6.83;3.93;;;;;;;14.61;63.07;100393.19;5029908;28;20572;-79
2023/03/19 08:52:41;;;;;;;6.53;3.90;;;;;;;14.57;63.27;100384.31;5029437;28;20199;-77
2023/03/19 08:55:09;;;;;;;4.20;3.73;;;;;;;14.82;61.24;100386.91;5023335;28;20191;-76
2023/03/19 08:57:36;;;;;;;6.23;3.73;;;;;;;15.03;61.08;100379.69;5027298;28;20199;-76
2023/03/19 09:00:04;;;;;;;5.97;3.73;;;;;;;15.32;60.62;100382.22;5028510;28;20226;-73
2023/03/19 09:02:31;;;;;;;6.20;3.93;;;;;;;15.15;60.50;100394.75;5024065;28;20206;-74
2023/03/19 09:04:57;;;;;;;7.30;4.30;;;;;;;14.69;61.48;100396.72;5028813;28;20224;-80
2023/03/19 09:07:23;;;;;;;6.87;4.27;;;;;;;14.87;61.35;100399.34;5027214;28;20209;-78
2023/03/19 09:09:50;;;;;;;5.87;4.03;;;;;;;14.75;61.08;100394.03;5029705;28;20191;-78
2023/03/19 09:12:17;;;;;;;7.80;3.70;;;;;;;14.81;61.02;100395.78;5024444;28;20706;-76
2023/03/19 09:14:43;;;;;;;5.63;3.53;;;;;;;15.04;60.94;100400.13;5029502;28;20585;-79
2023/03/19 09:17:10;;;;;;;4.90;3.83;;;;;;;15.16;59.99;100401.84;5026411;28;20222;-78
2023/03/19 09:19:36;;;;;;;7.30;4.27;;;;;;;14.88;61.06;100403.78;5027204;28;20215;-74
2023/03/19 09:22:03;;;;;;;6.30;4.43;;;;;;;15.27;60.12;100404.47;5025686;28;20219;-74
2023/03/19 09:24:29;;;;;;;5.07;3.90;;;;;;;15.34;59.36;100408.88;5028326;28;20192;-73
2023/03/19 09:26:56;;;;;;;6.97;3.90;;;;;;;15.18;59.97;100410.72;5029141;28;20465;-71
2023/03/19 09:29:22;;;;;;;7.87;3.90;;;;;;;14.85;60.82;100416.22;5020181;28;20188;-74
2023/03/19 09:31:49;;;;;;;6.20;3.90;;;;;;;15.11;60.59;100410.78;5021460;28;20634;-75
2023/03/19 09:34:15;;;;;;;6.20;4.23;;;;;;;15.25;60.42;100414.28;5025094;28;20207;-76
2023/03/19 09:36:41;;;;;;;5.10;3.83;;;;;;;15.55;58.80;100415.84;5026983;28;20250;-72
2023/03/19 09:39:08;;;;;;;7.20;3.90;;;;;;;15.48;59.38;100414.13;5020588;28;20675;-71
2023/03/19 09:41:47;;;;;;;6.67;4.00;;;;;;;15.81;58.75;100410.38;5019523;28;20274;-71
2023/03/19 09:44:27;;;;;;;6.03;4.00;;;;;;;15.59;58.73;100418.53;5023316;28;20211;-76
2023/03/19 09:47:01;;;;;;;6.20;4.00;;;;;;;15.80;58.45;100425.53;5022495;28;20425;-74
2023/03/19 09:49:32;;;;;;;8.87;4.20;;;;;;;16.22;57.59;100410.91;5019168;28;20191;-72
2023/03/19 09:52:13;;;;;;;9.33;4.23;;;;;;;15.92;58.51;100413.84;5024271;28;20649;-71
2023/03/19 09:54:47;;;;;;;7.13;3.97;;;;;;;15.96;57.79;100418.25;5022286;28;20257;-71
2023/03/19 09:57:14;;;;;;;6.37;4.03;;;;;;;15.99;57.34;100411.09;5025545;28;20265;-73
2023/03/19 09:59:41;;;;;;;7.53;4.10;;;;;;;15.91;57.94;100412.06;5021772;28;20223;-72
2023/03/19 10:02:14;;;;;;;10.30;4.40;;;;;;;15.99;58.40;100412.88;5022117;28;20715;-72
2023/03/19 10:04:57;;;;;;;8.80;4.30;;;;;;;16.06;57.45;100414.63;5023395;28;20245;-72
2023/03/19 10:07:51;;;;;;;5.47;3.47;;;;;;;16.12;57.62;100411.91;5024986;28;20242;-72
2023/03/19 10:10:36;;;;;;;5.53;3.60;;;;;;;16.18;58.44;100409.19;5024851;28;20196;-72
2023/03/19 10:13:35;;;;;;;5.43;3.70;;;;;;;16.34;57.33;100411.69;5023478;28;20230;-72
2023/03/19 10:16:03;;;;;;;7.37;4.20;;;;;;;15.98;58.24;100406.66;5023938;28;20367;-70
2023/03/19 10:18:35;;;;;;;5.97;3.70;;;;;;;16.06;56.96;100405.75;5024141;28;20225;-71
2023/03/19 10:21:22;;;;;;;6.40;4.10;;;;;;;16.07;58.71;100404.84;5025547;28;20230;-71
2023/03/19 10:23:56;;;;;;;8.63;3.53;;;;;;;15.94;57.93;100404.91;5026334;28;20226;-71
2023/03/19 10:26:28;;;;;;;5.97;3.50;;;;;;;16.10;62.14;100415.50;5021749;28;20219;-71
2023/03/19 10:29:15;;;;;;;5.67;3.77;;;;;;;15.77;61.24;100417.53;5027255;28;20230;-72
2023/03/19 10:31:50;;;;;;;6.07;3.77;;;;;;;15.55;63.16;100416.75;5024053;28;20695;-70
2023/03/19 10:34:30;;;;;;;6.47;3.80;;;;;;;15.63;64.14;100417.63;5025285;28;20190;-71
2023/03/19 10:37:02;;;;;;;6.93;3.93;;;;;;;15.77;66.96;100425.53;5028445;28;20195;-71
2023/03/19 10:39:34;;;;;;;6.57;3.83;;;;;;;15.73;66.69;100422.91;5020601;28;20220;-70
2023/03/19 10:42:40;;;;;;;6.43;4.00;;;;;;;16.15;66.71;100413.66;5024988;28;20650;-70
2023/03/19 10:45:29;;;;;;;5.87;3.80;;;;;;;16.33;69.36;100421.50;5020973;28;20230;-70
2023/03/19 10:47:57;;;;;;;5.33;3.67;;;;;;;16.43;66.48;100433.00;5019523;28;20290;-69
2023/03/19 10:50:30;;;;;;;5.77;4.00;;;;;;;16.41;67.51;100427.69;5025361;28;20226;-70
2023/03/19 10:53:04;;;;;;;5.20;3.73;;;;;;;16.51;67.02;100434.69;5022672;28;20211;-70
2023/03/19 10:55:31;;;;;;;7.80;3.90;;;;;;;16.66;64.67;100425.66;5021745;28;20686;-70
2023/03/19 10:58:15;;;;;;;7.27;4.07;;;;;;;16.82;60.83;100439.78;5029696;28;20310;-70
2023/03/19 11:00:45;;;;;;;6.47;4.13;;;;;;;16.54;64.06;100436.47;5024637;28;20636;-71
2023/03/19 11:03:28;;;;;;;5.73;3.73;;;;;;;16.41;63.63;100434.78;5026999;28;20200;-70
2023/03/19 11:06:18;;;;;;;7.63;3.77;;;;;;;16.43;65.71;100436.56;5026931;28;20667;-70
2023/03/19 11:08:59;;;;;;;7.77;4.00;;;;;;;16.12;63.63;100446.66;5026174;28;20253;-68
2023/03/19 11:11:32;;;;;;;5.57;4.07;;;;;;;15.90;64.75;100445.91;5026328;28;20234;-69
2023/03/19 11:14:07;;;;;;;7.07;3.63;;;;;;;15.49;66.25;100454.16;5021491;28;20656;-70
2023/03/19 11:16:47;;;;;;;7.03;4.00;;;;;;;15.12;67.15;100445.44;5021746;28;20187;-71
2023/03/19 11:19:22;;;;;;;5.70;4.00;;;;;;;14.99;67.94;100451.72;5030486;28;20199;-71
2023/03/19 11:22:00;;;;;;;5.93;4.13;;;;;;;14.65;70.93;100442.94;5023004;28;20238;-73
2023/03/19 11:24:26;;;;;;;6.10;3.83;;;;;;;14.40;70.17;100440.28;5031672;28;20199;-78
2023/03/19 11:26:54;;;;;;;5.47;4.07;;;;;;;14.38;71.47;100442.03;5029253;28;20199;-78
2023/03/19 11:29:22;;;;;;;6.27;4.10;;;;;;;14.54;72.60;100434.09;5024305;28;20203;-80
2023/03/19 11:31:55;;;;;;;5.63;4.13;;;;;;;14.46;68.36;100439.44;5029315;28;20219;-79